Time;durP1;ratioP1;P1;durP2;ratioP2;P2;SDS_P1;SDS_P2;PMS_P1;PMS_P2;Temp;Humidity;BMP_temperature;BMP_pressure;BME280_temperature;BME280_humidity;BME280_pressure;Samples;Min_cycle;Max_cycle;Signal;HPM_P1;HPM_P2
2022/07/05 00:00:37;;;;;;;;;;;13.20;99.90;;;;;;5012666;28;20369;-81
2022/07/05 00:03:02;;;;;;;;;;;13.10;99.90;;;;;;5012349;28;19929;-81
2022/07/05 00:05:28;;;;;;;;;;;13.00;99.90;;;;;;5016377;28;19928;-81
2022/07/05 00:07:54;;;;;;;;;;;12.90;99.90;;;;;;5018365;28;19940;-80
2022/07/05 00:10:20;;;;;;;;;;;12.90;99.90;;;;;;5007431;28;21004;-81
2022/07/05 00:12:45;;;;;;;;;;;12.90;99.90;;;;;;5013614;28;20291;-81
2022/07/05 00:15:11;;;;;;;;;;;13.00;99.90;;;;;;5015265;28;20688;-81
2022/07/05 00:17:37;;;;;;;;;;;12.90;99.90;;;;;;5001824;28;19936;-81
2022/07/05 00:20:03;;;;;;;;;;;12.70;99.90;;;;;;5014700;28;19929;-81
2022/07/05 00:22:29;;;;;;;;;;;12.60;99.90;;;;;;5009803;28;19972;-81
2022/07/05 00:24:54;;;;;;;;;;;12.50;99.90;;;;;;5013612;28;19972;-81
2022/07/05 00:27:20;;;;;;;;;;;12.60;99.90;;;;;;4989115;28;20063;-81
2022/07/05 00:29:46;;;;;;;;;;;12.70;99.90;;;;;;5016524;28;20339;-80
2022/07/05 00:32:12;;;;;;;;;;;12.80;99.90;;;;;;5016347;28;20792;-81
2022/07/05 00:34:37;;;;;;;;;;;12.90;99.90;;;;;;5014357;28;20168;-81
2022/07/05 00:37:03;;;;;;;;;;;12.80;99.90;;;;;;5011992;28;19929;-81
2022/07/05 00:39:29;;;;;;;;;;;12.90;99.90;;;;;;5018956;28;19928;-81
2022/07/05 00:41:55;;;;;;;;;;;12.90;99.90;;;;;;5015732;28;20357;-81
2022/07/05 00:44:37;;;;;;;;;;;12.90;99.90;;;;;;5014014;28;20034;-81
2022/07/05 00:47:06;;;;;;;;;;;13.00;99.90;;;;;;5002655;28;19939;-81
2022/07/05 00:49:32;;;;;;;;;;;13.00;99.90;;;;;;5013562;28;19936;-81
2022/07/05 00:51:59;;;;;;;;;;;12.90;99.90;;;;;;5012823;28;20036;-81
2022/07/05 00:54:24;;;;;;;;;;;13.00;99.90;;;;;;5014201;28;19979;-82
2022/07/05 00:56:51;;;;;;;;;;;13.20;99.90;;;;;;5010552;28;19929;-82
2022/07/05 00:59:17;;;;;;;;;;;13.10;99.90;;;;;;5016224;28;19925;-81
2022/07/05 01:01:43;;;;;;;;;;;13.10;99.90;;;;;;5010783;28;19936;-81
2022/07/05 01:04:10;;;;;;;;;;;12.90;99.90;;;;;;5007964;28;20378;-82
2022/07/05 01:06:35;;;;;;;;;;;12.90;99.90;;;;;;5014424;28;19929;-82
2022/07/05 01:09:01;;;;;;;;;;;12.90;99.90;;;;;;5015175;28;19944;-81
2022/07/05 01:11:27;;;;;;;;;;;13.00;99.90;;;;;;5013007;28;19929;-82
2022/07/05 01:13:52;;;;;;;;;;;12.90;99.90;;;;;;5010978;28;19929;-81
2022/07/05 01:16:18;;;;;;;;;;;12.80;99.90;;;;;;5010193;28;20687;-81
2022/07/05 01:18:44;;;;;;;;;;;12.80;99.90;;;;;;5013513;28;20375;-81
2022/07/05 01:21:12;;;;;;;;;;;12.70;99.90;;;;;;5006794;28;19940;-81
2022/07/05 01:23:38;;;;;;;;;;;12.80;99.90;;;;;;5012009;28;19986;-81
2022/07/05 01:26:04;;;;;;;;;;;12.80;99.90;;;;;;5010059;28;19929;-81
2022/07/05 01:28:30;;;;;;;;;;;12.80;99.90;;;;;;5011439;28;19968;-81
2022/07/05 01:30:55;;;;;;;;;;;12.60;99.90;;;;;;5014718;28;19928;-82
2022/07/05 01:33:28;;;;;;;;;;;12.60;99.90;;;;;;5007669;28;20683;-82
2022/07/05 01:35:54;;;;;;;;;;;12.50;99.90;;;;;;5012901;28;19933;-82
2022/07/05 01:38:20;;;;;;;;;;;12.50;99.90;;;;;;5008643;28;20365;-82
2022/07/05 01:40:46;;;;;;;;;;;12.60;99.90;;;;;;5013322;28;19929;-81
2022/07/05 01:43:11;;;;;;;;;;;12.50;99.90;;;;;;5030396;28;19999;-82
2022/07/05 01:45:41;;;;;;;;;;;12.40;99.90;;;;;;5010664;28;20012;-82
2022/07/05 01:48:17;;;;;;;;;;;12.40;99.90;;;;;;5016020;28;20040;-82
2022/07/05 01:50:48;;;;;;;;;;;12.30;99.90;;;;;;5008469;28;19940;-82
2022/07/05 01:53:16;;;;;;;;;;;12.30;99.90;;;;;;5011936;28;19928;-82
2022/07/05 01:55:42;;;;;;;;;;;12.30;99.90;;;;;;5008968;28;19983;-82
2022/07/05 01:58:08;;;;;;;;;;;12.30;99.90;;;;;;5009501;28;19932;-82
2022/07/05 02:00:47;;;;;;;;;;;12.30;99.90;;;;;;5014908;28;19940;-82
2022/07/05 02:03:13;;;;;;;;;;;12.30;99.90;;;;;;5009899;28;19929;-82
2022/07/05 02:05:39;;;;;;;;;;;12.40;99.90;;;;;;5016214;28;19929;-82
2022/07/05 02:08:05;;;;;;;;;;;12.20;99.90;;;;;;5013481;28;20027;-82
2022/07/05 02:10:31;;;;;;;;;;;12.20;99.90;;;;;;5011843;28;19929;-82
2022/07/05 02:12:56;;;;;;;;;;;12.20;99.90;;;;;;5011498;28;19928;-83
2022/07/05 02:15:22;;;;;;;;;;;12.10;99.90;;;;;;5006607;28;20727;-82
2022/07/05 02:17:47;;;;;;;;;;;12.10;99.90;;;;;;5010310;28;20404;-82
2022/07/05 02:20:13;;;;;;;;;;;12.20;99.90;;;;;;5010427;28;19929;-81
2022/07/05 02:22:39;;;;;;;;;;;12.20;99.90;;;;;;5009401;28;19940;-82
2022/07/05 02:25:05;;;;;;;;;;;12.30;99.90;;;;;;5006973;28;19940;-81
2022/07/05 02:27:30;;;;;;;;;;;12.20;99.90;;;;;;5012522;28;19936;-82
2022/07/05 02:29:56;;;;;;;;;;;12.20;99.90;;;;;;5009708;28;19929;-82
2022/07/05 02:32:22;;;;;;;;;;;12.30;99.90;;;;;;5009716;28;19936;-82
2022/07/05 02:34:48;;;;;;;;;;;12.40;99.90;;;;;;5005212;28;20676;-82
2022/07/05 02:37:13;;;;;;;;;;;12.50;99.90;;;;;;5008581;28;19929;-82
2022/07/05 02:39:39;;;;;;;;;;;12.50;99.90;;;;;;5008957;28;20043;-82
2022/07/05 02:42:05;;;;;;;;;;;12.50;99.90;;;;;;5006615;28;19933;-82
2022/07/05 02:44:30;;;;;;;;;;;12.50;99.90;;;;;;5016125;28;20388;-82
2022/07/05 02:46:56;;;;;;;;;;;12.40;99.90;;;;;;5010882;28;19999;-82
2022/07/05 02:49:22;;;;;;;;;;;12.40;99.90;;;;;;5009736;28;20027;-82
2022/07/05 02:51:47;;;;;;;;;;;12.30;99.90;;;;;;5010922;28;20031;-81
2022/07/05 02:54:13;;;;;;;;;;;12.50;99.90;;;;;;5009755;28;19941;-81
2022/07/05 02:56:39;;;;;;;;;;;12.50;99.90;;;;;;5011762;28;19929;-81
2022/07/05 02:59:05;;;;;;;;;;;12.40;99.90;;;;;;5009908;28;20028;-81
2022/07/05 03:01:31;;;;;;;;;;;12.50;99.90;;;;;;5014587;28;19950;-82
2022/07/05 03:03:58;;;;;;;;;;;12.30;99.90;;;;;;5013642;28;20366;-82
2022/07/05 03:06:24;;;;;;;;;;;12.30;99.90;;;;;;5008417;28;19929;-81
2022/07/05 03:08:49;;;;;;;;;;;12.20;99.90;;;;;;5005808;28;19935;-82
2022/07/05 03:11:15;;;;;;;;;;;12.30;99.90;;;;;;5012100;28;19976;-82
2022/07/05 03:13:42;;;;;;;;;;;12.30;99.90;;;;;;5014319;28;20123;-82
2022/07/05 03:16:07;;;;;;;;;;;12.40;99.90;;;;;;5010153;28;19929;-82
2022/07/05 03:18:33;;;;;;;;;;;12.40;99.90;;;;;;5009705;28;19929;-81
2022/07/05 03:20:59;;;;;;;;;;;12.40;99.90;;;;;;5011447;28;20596;-82
2022/07/05 03:23:24;;;;;;;;;;;12.40;99.90;;;;;;5005652;28;19933;-81
2022/07/05 03:25:50;;;;;;;;;;;12.30;99.90;;;;;;5008519;28;20600;-81
2022/07/05 03:28:16;;;;;;;;;;;12.40;99.90;;;;;;5010133;28;19940;-82
2022/07/05 03:30:41;;;;;;;;;;;12.20;99.90;;;;;;5007808;28;19929;-81
2022/07/05 03:33:07;;;;;;;;;;;12.30;99.90;;;;;;5010089;28;20948;-82
2022/07/05 03:35:33;;;;;;;;;;;12.30;99.90;;;;;;5010380;28;19936;-82
2022/07/05 03:37:59;;;;;;;;;;;12.30;99.90;;;;;;5013358;28;19928;-81
2022/07/05 03:40:24;;;;;;;;;;;12.20;99.90;;;;;;5033674;28;19928;-81
2022/07/05 03:42:50;;;;;;;;;;;12.10;99.90;;;;;;5018980;28;20028;-82
2022/07/05 03:45:16;;;;;;;;;;;12.10;99.90;;;;;;5013959;28;19933;-82
2022/07/05 03:47:42;;;;;;;;;;;12.00;99.90;;;;;;5015494;28;19928;-82
2022/07/05 03:50:07;;;;;;;;;;;12.10;99.90;;;;;;5013714;28;20341;-81
2022/07/05 03:52:33;;;;;;;;;;;12.20;99.90;;;;;;5022496;28;19935;-82
2022/07/05 03:54:59;;;;;;;;;;;12.20;99.90;;;;;;5017630;28;19958;-82
2022/07/05 03:57:24;;;;;;;;;;;12.20;99.90;;;;;;5009315;28;20259;-82
2022/07/05 03:59:50;;;;;;;;;;;12.30;99.90;;;;;;5018983;28;19930;-81
2022/07/05 04:02:16;;;;;;;;;;;12.30;99.90;;;;;;5015260;28;19937;-82
2022/07/05 04:04:42;;;;;;;;;;;12.30;99.90;;;;;;5021818;28;19936;-82
2022/07/05 04:07:07;;;;;;;;;;;12.30;99.90;;;;;;5018059;28;19975;-82
2022/07/05 04:09:33;;;;;;;;;;;12.30;99.90;;;;;;5013085;28;20023;-82
2022/07/05 04:11:59;;;;;;;;;;;12.40;99.90;;;;;;5016617;28;19933;-82
2022/07/05 04:14:24;;;;;;;;;;;12.50;99.90;;;;;;5016440;28;20302;-82
2022/07/05 04:16:50;;;;;;;;;;;12.50;99.90;;;;;;5011077;28;19929;-82
2022/07/05 04:19:16;;;;;;;;;;;12.60;99.90;;;;;;5012647;28;19941;-82
2022/07/05 04:21:42;;;;;;;;;;;12.70;99.90;;;;;;5014794;28;19929;-81
2022/07/05 04:24:07;;;;;;;;;;;12.90;99.90;;;;;;5012462;28;20375;-81
2022/07/05 04:26:33;;;;;;;;;;;13.00;99.90;;;;;;4976099;28;20007;-82
2022/07/05 04:28:59;;;;;;;;;;;13.10;99.90;;;;;;5012045;28;20019;-82
2022/07/05 04:31:24;;;;;;;;;;;13.20;99.90;;;;;;5015786;28;20412;-82
2022/07/05 04:33:50;;;;;;;;;;;13.30;99.90;;;;;;5013184;28;19933;-82
2022/07/05 04:36:16;;;;;;;;;;;13.30;99.90;;;;;;5011963;28;19932;-81
2022/07/05 04:38:41;;;;;;;;;;;13.40;99.90;;;;;;5004412;28;19933;-80
2022/07/05 04:41:07;;;;;;;;;;;13.40;99.90;;;;;;4995189;28;19929;-80
2022/07/05 04:43:34;;;;;;;;;;;13.60;99.90;;;;;;5009755;28;19990;-81
2022/07/05 04:45:59;;;;;;;;;;;13.70;99.90;;;;;;5010332;28;19936;-82
2022/07/05 04:48:25;;;;;;;;;;;14.20;99.90;;;;;;5016066;28;19976;-82
2022/07/05 04:50:51;;;;;;;;;;;14.30;99.90;;;;;;4988866;28;19933;-83
2022/07/05 04:53:17;;;;;;;;;;;14.80;99.90;;;;;;4998944;28;20287;-82
2022/07/05 04:55:42;;;;;;;;;;;15.00;99.90;;;;;;4991502;28;20039;-83
2022/07/05 04:58:11;;;;;;;;;;;17.20;99.90;;;;;;4993067;28;19933;-83
2022/07/05 05:00:37;;;;;;;;;;;18.80;99.90;;;;;;5001226;28;19929;-82
2022/07/05 05:03:02;;;;;;;;;;;19.60;99.90;;;;;;5001043;28;19933;-82
2022/07/05 05:05:28;;;;;;;;;;;21.00;99.90;;;;;;5001959;28;19935;-83
2022/07/05 05:07:54;;;;;;;;;;;21.60;99.90;;;;;;5017133;28;19936;-82
2022/07/05 05:10:20;;;;;;;;;;;22.30;99.90;;;;;;5002605;28;19929;-83
2022/07/05 05:12:45;;;;;;;;;;;21.00;99.90;;;;;;4996232;28;19933;-83
2022/07/05 05:15:11;;;;;;;;;;;20.10;99.90;;;;;;4999728;28;19982;-83
2022/07/05 05:17:38;;;;;;;;;;;21.50;99.90;;;;;;4998597;28;19929;-83
2022/07/05 05:20:10;;;;;;;;;;;21.90;99.90;;;;;;4985992;28;20593;-83
2022/07/05 05:22:36;;;;;;;;;;;20.80;99.90;;;;;;4999154;28;19929;-83
2022/07/05 05:25:02;;;;;;;;;;;22.00;99.90;;;;;;4999826;28;19935;-83
2022/07/05 05:27:28;;;;;;;;;;;20.90;99.90;;;;;;5001505;28;19937;-83
2022/07/05 05:29:54;;;;;;;;;;;22.10;99.90;;;;;;5003167;28;20401;-83
2022/07/05 05:32:19;;;;;;;;;;;23.40;99.90;;;;;;5003150;28;20686;-82
2022/07/05 05:34:45;;;;;;;;;;;24.40;99.90;;;;;;5004461;28;21022;-83
2022/07/05 05:37:11;;;;;;;;;;;23.20;99.90;;;;;;5005673;28;19963;-83
2022/07/05 05:39:37;;;;;;;;;;;24.60;99.90;;;;;;5002739;28;19940;-82
2022/07/05 05:42:02;;;;;;;;;;;24.80;99.90;;;;;;5002072;28;20652;-82
2022/07/05 05:44:28;;;;;;;;;;;25.10;99.90;;;;;;5005420;28;19935;-83
2022/07/05 05:46:54;;;;;;;;;;;25.40;99.90;;;;;;5003460;28;19929;-82
2022/07/05 05:49:20;;;;;;;;;;;25.30;99.90;;;;;;5012369;28;20417;-81
2022/07/05 05:51:45;;;;;;;;;;;24.50;99.90;;;;;;5009733;28;19932;-83
2022/07/05 05:54:11;;;;;;;;;;;23.00;99.90;;;;;;5009353;28;19929;-82
2022/07/05 05:56:38;;;;;;;;;;;22.30;99.90;;;;;;5015190;28;19929;-82
2022/07/05 05:59:03;;;;;;;;;;;22.40;99.90;;;;;;5016528;28;19928;-82
2022/07/05 06:01:30;;;;;;;;;;;22.60;99.90;;;;;;5009789;28;19982;-83
2022/07/05 06:03:55;;;;;;;;;;;21.60;99.90;;;;;;5018511;28;19929;-82
2022/07/05 06:06:21;;;;;;;;;;;21.30;99.90;;;;;;5016158;28;20038;-82
2022/07/05 06:08:47;;;;;;;;;;;21.40;99.90;;;;;;4993020;28;19972;-82
2022/07/05 06:11:13;;;;;;;;;;;21.30;99.90;;;;;;5011795;28;19936;-82
2022/07/05 06:13:39;;;;;;;;;;;21.30;99.90;;;;;;5018631;28;19929;-83
2022/07/05 06:16:08;;;;;;;;;;;21.10;99.90;;;;;;5015358;28;19929;-82
2022/07/05 06:18:34;;;;;;;;;;;21.30;99.90;;;;;;5019051;28;19968;-83
2022/07/05 06:21:00;;;;;;;;;;;21.40;99.90;;;;;;5018597;28;20854;-80
2022/07/05 06:23:26;;;;;;;;;;;21.50;99.90;;;;;;5019263;28;20469;-82
2022/07/05 06:25:51;;;;;;;;;;;21.30;99.90;;;;;;5011823;28;20386;-82
2022/07/05 06:28:17;;;;;;;;;;;21.60;99.90;;;;;;5015408;28;19936;-82
2022/07/05 06:30:43;;;;;;;;;;;21.70;99.90;;;;;;5014057;28;20023;-82
2022/07/05 06:33:09;;;;;;;;;;;21.50;99.90;;;;;;5010453;28;20310;-80
2022/07/05 06:35:34;;;;;;;;;;;21.50;99.90;;;;;;5017618;28;19929;-80
2022/07/05 06:38:08;;;;;;;;;;;21.70;99.90;;;;;;5016978;28;20346;-81
2022/07/05 06:40:35;;;;;;;;;;;21.40;99.90;;;;;;5016625;28;20499;-82
2022/07/05 06:43:02;;;;;;;;;;;21.60;99.90;;;;;;5017777;28;19951;-82
2022/07/05 06:45:28;;;;;;;;;;;21.90;99.90;;;;;;5019513;28;19933;-83
2022/07/05 06:47:58;;;;;;;;;;;21.80;99.90;;;;;;5019206;28;19925;-83
2022/07/05 06:50:24;;;;;;;;;;;21.80;99.90;;;;;;5009362;28;20394;-84
2022/07/05 06:52:50;;;;;;;;;;;21.80;99.90;;;;;;5010574;28;19929;-83
2022/07/05 06:55:16;;;;;;;;;;;21.90;99.90;;;;;;4998940;28;20346;-84
2022/07/05 06:57:43;;;;;;;;;;;21.80;99.90;;;;;;5010814;28;19929;-84
2022/07/05 07:00:10;;;;;;;;;;;21.60;99.90;;;;;;4991632;28;20024;-84
2022/07/05 07:02:35;;;;;;;;;;;21.70;99.90;;;;;;4998073;28;19924;-83
2022/07/05 07:05:01;;;;;;;;;;;21.30;99.90;;;;;;4973997;28;19936;-84
2022/07/05 07:10:11;;;;;;;;;;;21.30;99.90;;;;;;5011632;28;19980;-82
2022/07/05 07:12:37;;;;;;;;;;;21.10;99.90;;;;;;4995228;28;20516;-81
2022/07/05 07:15:03;;;;;;;;;;;20.90;99.90;;;;;;5016837;28;19933;-80
2022/07/05 07:17:28;;;;;;;;;;;21.10;99.90;;;;;;5010651;28;20044;-86
2022/07/05 07:19:54;;;;;;;;;;;20.70;99.90;;;;;;4991137;28;20287;-86
2022/07/05 07:22:20;;;;;;;;;;;20.60;99.90;;;;;;5010581;28;19925;-85
2022/07/05 07:24:46;;;;;;;;;;;20.60;99.90;;;;;;5000059;28;20175;-83
2022/07/05 07:27:12;;;;;;;;;;;20.60;99.90;;;;;;5003033;28;19929;-85
2022/07/05 07:29:38;;;;;;;;;;;20.50;99.90;;;;;;5035684;28;20603;-81
2022/07/05 07:32:05;;;;;;;;;;;20.50;99.90;;;;;;5026993;28;19929;-85
2022/07/05 07:34:31;;;;;;;;;;;20.70;99.90;;;;;;5021219;28;19951;-84
2022/07/05 07:36:57;;;;;;;;;;;20.60;99.90;;;;;;5016466;28;20786;-82
2022/07/05 07:39:23;;;;;;;;;;;20.60;99.90;;;;;;5020917;28;19952;-84
2022/07/05 07:41:49;;;;;;;;;;;20.90;99.90;;;;;;5022012;28;20509;-84
2022/07/05 07:44:15;;;;;;;;;;;21.00;99.90;;;;;;5020604;28;20044;-82
2022/07/05 07:46:41;;;;;;;;;;;21.10;99.90;;;;;;5022698;28;19980;-84
2022/07/05 07:49:07;;;;;;;;;;;21.10;99.90;;;;;;5022734;28;20008;-83
2022/07/05 07:51:33;;;;;;;;;;;20.90;99.90;;;;;;5019654;28;20040;-84
2022/07/05 07:53:59;;;;;;;;;;;21.30;99.90;;;;;;5021463;28;19929;-83
2022/07/05 07:56:25;;;;;;;;;;;21.60;99.90;;;;;;5023109;28;19929;-82
2022/07/05 07:58:51;;;;;;;;;;;22.00;99.90;;;;;;5021845;28;19928;-81
2022/07/05 08:01:16;;;;;;;;;;;22.40;99.90;;;;;;5024328;28;19933;-81
2022/07/05 08:03:43;;;;;;;;;;;22.20;99.90;;;;;;5005110;28;19936;-83
2022/07/05 08:06:10;;;;;;;;;;;22.30;99.90;;;;;;5004431;28;19941;-82
2022/07/05 08:08:36;;;;;;;;;;;22.20;99.90;;;;;;5008461;28;19972;-83
2022/07/05 08:11:02;;;;;;;;;;;22.60;99.90;;;;;;5009306;28;19983;-85
2022/07/05 08:13:28;;;;;;;;;;;22.70;99.90;;;;;;4990592;28;19929;-82
2022/07/05 08:15:53;;;;;;;;;;;22.30;99.90;;;;;;5020719;28;19940;-84
2022/07/05 08:23:48;;;;;;;;;;;22.70;99.90;;;;;;5024425;28;19932;-83
2022/07/05 08:26:13;;;;;;;;;;;22.10;99.90;;;;;;5019977;28;19937;-83
2022/07/05 08:28:41;;;;;;;;;;;21.90;99.90;;;;;;5017990;28;20367;-82
2022/07/05 08:31:07;;;;;;;;;;;21.50;99.90;;;;;;5021306;28;20409;-83
2022/07/05 08:33:33;;;;;;;;;;;21.50;99.90;;;;;;5021833;28;19990;-82
2022/07/05 08:35:58;;;;;;;;;;;21.10;99.90;;;;;;5022351;28;19929;-84
2022/07/05 08:38:24;;;;;;;;;;;21.10;99.90;;;;;;5018435;28;20417;-84
2022/07/05 08:40:51;;;;;;;;;;;21.00;99.90;;;;;;5019964;28;19989;-82
2022/07/05 08:43:18;;;;;;;;;;;20.90;99.90;;;;;;4999707;28;20120;-82
2022/07/05 08:45:45;;;;;;;;;;;20.80;99.90;;;;;;5023296;28;19986;-83
2022/07/05 08:48:10;;;;;;;;;;;21.00;99.90;;;;;;5011428;28;19965;-85
2022/07/05 08:50:37;;;;;;;;;;;21.00;99.90;;;;;;5018734;28;20031;-82
2022/07/05 08:53:03;;;;;;;;;;;21.00;99.90;;;;;;5018764;28;19929;-84
2022/07/05 08:55:29;;;;;;;;;;;21.00;99.90;;;;;;5019352;28;20413;-82
2022/07/05 08:57:55;;;;;;;;;;;21.30;99.90;;;;;;5019079;28;19929;-82
2022/07/05 09:00:21;;;;;;;;;;;21.00;99.90;;;;;;5021081;28;20417;-84
2022/07/05 09:02:48;;;;;;;;;;;20.90;99.90;;;;;;5003030;28;20684;-83
2022/07/05 09:05:15;;;;;;;;;;;20.70;99.90;;;;;;5018888;28;19928;-84
2022/07/05 09:07:44;;;;;;;;;;;20.50;99.90;;;;;;5002507;28;19944;-82
2022/07/05 09:10:14;;;;;;;;;;;20.20;99.90;;;;;;5006489;28;20640;-86
2022/07/05 09:12:40;;;;;;;;;;;20.10;99.90;;;;;;5016268;28;19929;-82
2022/07/05 09:15:05;;;;;;;;;;;20.20;99.90;;;;;;5015999;28;19929;-84
2022/07/05 09:17:31;;;;;;;;;;;20.10;99.90;;;;;;5012872;28;20043;-84
2022/07/05 09:20:08;;;;;;;;;;;20.10;99.90;;;;;;4998749;28;20077;-85
2022/07/05 09:22:43;;;;;;;;;;;20.10;99.90;;;;;;5014764;28;19928;-83
2022/07/05 09:25:15;;;;;;;;;;;20.10;99.90;;;;;;5019728;28;20243;-85
2022/07/05 09:27:47;;;;;;;;;;;20.60;99.90;;;;;;5017670;28;19955;-83
2022/07/05 09:30:22;;;;;;;;;;;21.50;99.90;;;;;;5019293;28;20285;-83
2022/07/05 09:32:59;;;;;;;;;;;21.60;99.90;;;;;;5016360;28;20124;-82
2022/07/05 09:35:24;;;;;;;;;;;21.30;99.90;;;;;;5019927;28;19972;-82
2022/07/05 09:37:50;;;;;;;;;;;21.00;99.90;;;;;;5014742;28;20122;-83
2022/07/05 09:40:16;;;;;;;;;;;20.90;99.90;;;;;;5019522;28;20026;-86
2022/07/05 09:42:41;;;;;;;;;;;20.80;99.90;;;;;;5020664;28;19929;-83
2022/07/05 09:45:08;;;;;;;;;;;21.30;99.90;;;;;;5017988;28;20015;-83
2022/07/05 09:47:33;;;;;;;;;;;21.80;99.90;;;;;;5017194;28;20274;-82
2022/07/05 09:50:07;;;;;;;;;;;22.40;99.90;;;;;;5014613;28;20431;-82
2022/07/05 09:52:33;;;;;;;;;;;22.30;99.90;;;;;;5012298;28;19929;-82
2022/07/05 09:55:05;;;;;;;;;;;22.00;99.90;;;;;;5016785;28;19929;-83
2022/07/05 09:57:32;;;;;;;;;;;21.90;99.90;;;;;;5017793;28;19986;-82
2022/07/05 09:59:59;;;;;;;;;;;21.70;99.90;;;;;;5010802;28;19929;-81
2022/07/05 10:02:58;;;;;;;;;;;21.60;99.90;;;;;;5015178;28;19928;-83
2022/07/05 10:05:25;;;;;;;;;;;21.10;99.90;;;;;;5000196;28;19929;-83
2022/07/05 10:07:50;;;;;;;;;;;20.90;99.90;;;;;;5016331;28;20751;-82
2022/07/05 10:10:20;;;;;;;;;;;20.80;99.90;;;;;;5002274;28;20027;-84
2022/07/05 10:12:46;;;;;;;;;;;21.10;99.90;;;;;;4989703;28;19924;-84
2022/07/05 10:15:13;;;;;;;;;;;21.90;99.90;;;;;;4998956;28;19929;-84
2022/07/05 10:17:46;;;;;;;;;;;22.30;99.90;;;;;;5017493;28;19956;-82
2022/07/05 10:20:15;;;;;;;;;;;22.50;99.90;;;;;;5019788;28;19986;-83
2022/07/05 10:22:41;;;;;;;;;;;23.30;99.90;;;;;;5004425;28;19933;-85
2022/07/05 10:25:07;;;;;;;;;;;23.90;99.90;;;;;;4999607;28;20014;-83
2022/07/05 10:27:34;;;;;;;;;;;23.90;99.90;;;;;;5022150;28;20015;-82
2022/07/05 10:30:01;;;;;;;;;;;23.20;99.90;;;;;;5018785;28;19932;-84
2022/07/05 10:32:28;;;;;;;;;;;22.50;99.90;;;;;;5017451;28;19940;-85
2022/07/05 10:34:54;;;;;;;;;;;22.30;99.90;;;;;;5017236;28;19929;-83
2022/07/05 10:37:22;;;;;;;;;;;21.90;99.90;;;;;;5019400;28;19928;-83
2022/07/05 10:39:47;;;;;;;;;;;22.50;99.90;;;;;;5021308;28;19936;-83
2022/07/05 10:42:14;;;;;;;;;;;23.20;99.90;;;;;;5023092;28;19929;-82
2022/07/05 10:44:40;;;;;;;;;;;23.70;99.90;;;;;;5033979;28;19979;-84
2022/07/05 10:47:10;;;;;;;;;;;23.50;99.90;;;;;;5013849;28;19955;-85
2022/07/05 10:49:37;;;;;;;;;;;23.00;99.90;;;;;;5016030;28;20419;-86
2022/07/05 10:52:03;;;;;;;;;;;22.80;99.90;;;;;;4998905;28;20458;-84
2022/07/05 10:54:29;;;;;;;;;;;23.10;99.90;;;;;;5018155;28;20403;-85
2022/07/05 10:57:13;;;;;;;;;;;23.10;99.90;;;;;;5014657;28;19929;-82
2022/07/05 10:59:57;;;;;;;;;;;23.40;99.90;;;;;;4996427;28;19975;-84
2022/07/05 11:02:23;;;;;;;;;;;23.30;99.90;;;;;;5017901;28;19929;-85
2022/07/05 11:04:54;;;;;;;;;;;23.10;99.90;;;;;;5015587;28;19929;-84
2022/07/05 11:07:40;;;;;;;;;;;23.30;99.90;;;;;;5017871;28;20385;-85
2022/07/05 11:10:07;;;;;;;;;;;23.20;99.90;;;;;;5013529;28;20429;-84
2022/07/05 11:12:37;;;;;;;;;;;23.40;99.90;;;;;;5014829;28;19929;-88
2022/07/05 11:15:08;;;;;;;;;;;23.90;99.90;;;;;;5020526;28;19929;-84
2022/07/05 11:17:36;;;;;;;;;;;23.30;99.90;;;;;;5018869;28;20294;-82
2022/07/05 11:20:05;;;;;;;;;;;23.10;99.90;;;;;;5017086;28;20011;-86
2022/07/05 11:22:32;;;;;;;;;;;23.50;99.90;;;;;;5000075;28;20456;-84
2022/07/05 11:24:58;;;;;;;;;;;23.50;99.90;;;;;;5017454;28;19935;-84
2022/07/05 11:27:23;;;;;;;;;;;24.10;99.90;;;;;;5010693;28;19929;-82
2022/07/05 11:29:53;;;;;;;;;;;24.00;99.90;;;;;;5008479;28;20452;-81
2022/07/05 11:32:23;;;;;;;;;;;23.80;99.90;;;;;;5011568;28;19929;-86
2022/07/05 11:34:50;;;;;;;;;;;24.00;99.90;;;;;;5014153;28;19929;-87
2022/07/05 11:37:15;;;;;;;;;;;24.20;99.90;;;;;;5014042;28;19929;-84
2022/07/05 11:39:41;;;;;;;;;;;23.40;99.90;;;;;;5035265;28;20412;-88
2022/07/05 11:42:10;;;;;;;;;;;23.60;99.90;;;;;;5007826;28;21013;-83
2022/07/05 11:44:36;;;;;;;;;;;23.70;99.90;;;;;;5009130;28;20503;-84
2022/07/05 11:47:03;;;;;;;;;;;23.20;99.90;;;;;;5013335;28;19928;-83
2022/07/05 11:49:29;;;;;;;;;;;23.90;99.90;;;;;;4991103;28;19929;-83
2022/07/05 11:52:02;;;;;;;;;;;24.30;99.90;;;;;;5022130;28;19952;-83
2022/07/05 11:54:30;;;;;;;;;;;24.50;99.90;;;;;;5018836;28;19929;-84
2022/07/05 11:56:56;;;;;;;;;;;23.80;99.90;;;;;;5015970;28;19929;-85
2022/07/05 11:59:23;;;;;;;;;;;23.40;99.90;;;;;;5015444;28;19928;-84
2022/07/05 12:01:50;;;;;;;;;;;22.60;99.90;;;;;;4999280;28;20413;-83
2022/07/05 12:04:29;;;;;;;;;;;22.90;99.90;;;;;;5016996;28;19928;-85
2022/07/05 12:06:58;;;;;;;;;;;22.90;99.90;;;;;;5019262;28;19929;-85
2022/07/05 12:12:42;;;;;;;;;;;22.60;99.90;;;;;;5019737;28;19936;-83
2022/07/05 12:15:04;;;;;;;;;;;22.40;99.90;;;;;;5023781;28;19928;-85
2022/07/05 12:17:33;;;;;;;;;;;22.00;99.90;;;;;;5020977;28;21076;-84
2022/07/05 12:19:58;;;;;;;;;;;21.70;99.90;;;;;;5014048;28;20523;-87
2022/07/05 12:22:30;;;;;;;;;;;21.40;99.90;;;;;;5019458;28;20019;-85
2022/07/05 12:24:58;;;;;;;;;;;21.30;99.90;;;;;;5017323;28;19928;-84
2022/07/05 12:27:24;;;;;;;;;;;21.10;99.90;;;;;;5019925;28;19933;-82
2022/07/05 12:29:50;;;;;;;;;;;21.40;99.90;;;;;;5015445;28;20374;-83
2022/07/05 12:32:16;;;;;;;;;;;22.40;99.90;;;;;;5021168;28;19936;-83
2022/07/05 12:34:42;;;;;;;;;;;22.40;99.90;;;;;;5018434;28;20015;-83
2022/07/05 12:37:08;;;;;;;;;;;23.00;99.90;;;;;;4991932;28;19929;-84
2022/07/05 12:39:34;;;;;;;;;;;23.50;99.90;;;;;;5014073;28;20318;-84
2022/07/05 12:42:00;;;;;;;;;;;23.70;99.90;;;;;;5013126;28;19929;-87
2022/07/05 12:44:26;;;;;;;;;;;23.30;99.90;;;;;;5019531;28;19936;-85
2022/07/05 12:46:52;;;;;;;;;;;23.40;99.90;;;;;;5020938;28;19929;-83
2022/07/05 12:49:18;;;;;;;;;;;23.10;99.90;;;;;;5021840;28;19929;-85
2022/07/05 12:51:44;;;;;;;;;;;22.80;99.90;;;;;;5018053;28;19929;-83
2022/07/05 12:59:58;;;;;;;;;;;22.20;99.90;;;;;;5003776;28;20100;-83
2022/07/05 13:02:34;;;;;;;;;;;22.30;99.90;;;;;;4994258;28;19936;-85
2022/07/05 13:05:00;;;;;;;;;;;22.30;99.90;;;;;;5022462;28;20394;-83
2022/07/05 13:07:26;;;;;;;;;;;22.30;99.90;;;;;;5020327;28;19935;-85
2022/07/05 13:09:52;;;;;;;;;;;22.00;99.90;;;;;;5019737;28;19933;-82
2022/07/05 13:12:20;;;;;;;;;;;21.90;99.90;;;;;;5022218;28;19935;-82
2022/07/05 13:14:46;;;;;;;;;;;21.90;99.90;;;;;;5017742;28;19931;-85
2022/07/05 13:17:13;;;;;;;;;;;22.00;99.90;;;;;;5001397;28;20390;-84
2022/07/05 13:19:39;;;;;;;;;;;21.90;99.90;;;;;;5019626;28;20290;-84
2022/07/05 13:22:05;;;;;;;;;;;22.20;99.90;;;;;;5016655;28;19929;-83
2022/07/05 13:24:31;;;;;;;;;;;22.30;99.90;;;;;;5012390;28;20356;-85
2022/07/05 13:26:58;;;;;;;;;;;23.30;99.90;;;;;;5021954;28;20847;-87
2022/07/05 13:29:24;;;;;;;;;;;23.00;99.90;;;;;;5019157;28;19929;-84
2022/07/05 13:31:50;;;;;;;;;;;23.00;99.90;;;;;;5020202;28;19929;-84
2022/07/05 13:34:16;;;;;;;;;;;22.50;99.90;;;;;;5019313;28;20452;-82
2022/07/05 13:36:41;;;;;;;;;;;22.30;99.90;;;;;;5017304;28;19933;-84
2022/07/05 13:39:07;;;;;;;;;;;22.70;99.90;;;;;;5017400;28;19951;-85
2022/07/05 13:41:33;;;;;;;;;;;22.90;99.90;;;;;;5017606;28;20483;-87
2022/07/05 13:43:59;;;;;;;;;;;23.50;99.90;;;;;;5001333;28;19978;-87
2022/07/05 13:46:25;;;;;;;;;;;23.70;99.90;;;;;;4993701;28;19937;-84
2022/07/05 13:48:51;;;;;;;;;;;23.90;99.90;;;;;;5021855;28;20019;-84
2022/07/05 13:51:16;;;;;;;;;;;24.00;99.90;;;;;;5020048;28;19929;-86
2022/07/05 13:53:42;;;;;;;;;;;23.60;99.90;;;;;;5036173;28;20066;-84
2022/07/05 13:56:08;;;;;;;;;;;23.20;99.90;;;;;;5030957;28;19929;-86
2022/07/05 13:58:34;;;;;;;;;;;23.40;99.90;;;;;;5011686;28;19936;-85
2022/07/05 14:01:00;;;;;;;;;;;22.90;99.00;;;;;;5018460;28;20651;-84
2022/07/05 14:03:26;;;;;;;;;;;22.90;99.80;;;;;;5017162;28;19929;-83
2022/07/05 14:05:52;;;;;;;;;;;23.40;99.90;;;;;;4994343;28;19979;-85
2022/07/05 14:08:21;;;;;;;;;;;23.60;99.90;;;;;;5015242;28;19928;-86
2022/07/05 14:10:51;;;;;;;;;;;24.20;99.90;;;;;;5012087;28;20966;-83
2022/07/05 14:13:20;;;;;;;;;;;24.00;99.00;;;;;;5016004;28;20456;-83
2022/07/05 14:15:47;;;;;;;;;;;23.90;99.90;;;;;;5013844;28;19937;-86
2022/07/05 14:18:13;;;;;;;;;;;23.10;99.90;;;;;;5012190;28;19929;-87
2022/07/05 14:20:39;;;;;;;;;;;22.90;99.90;;;;;;5011572;28;19929;-82
2022/07/05 14:23:05;;;;;;;;;;;22.90;99.90;;;;;;4970839;28;23337;-84
2022/07/05 14:25:31;;;;;;;;;;;23.10;99.90;;;;;;4976217;28;20051;-84
2022/07/05 14:27:56;;;;;;;;;;;23.10;99.90;;;;;;5013943;28;19968;-86
2022/07/05 14:30:23;;;;;;;;;;;23.60;99.90;;;;;;4997303;28;19987;-86